sensor_id;sensor_type;location;lat;lon;timestamp;temperature;humidity
1413;DHT22;701;52.526;13.408;2023-01-20T00:01:09;4.60;28.40
1413;DHT22;701;52.526;13.408;2023-01-20T00:03:40;4.50;28.40
1413;DHT22;701;52.526;13.408;2023-01-20T00:06:06;4.60;28.40
1413;DHT22;701;52.526;13.408;2023-01-20T00:08:32;4.50;28.30
1413;DHT22;701;52.526;13.408;2023-01-20T00:10:58;4.50;28.30
1413;DHT22;701;52.526;13.408;2023-01-20T00:13:24;4.50;28.50
1413;DHT22;701;52.526;13.408;2023-01-20T00:15:49;4.50;28.80
1413;DHT22;701;52.526;13.408;2023-01-20T00:18:15;4.50;28.90
1413;DHT22;701;52.526;13.408;2023-01-20T00:20:41;4.50;29.40
1413;DHT22;701;52.526;13.408;2023-01-20T00:23:07;4.50;29.00
1413;DHT22;701;52.526;13.408;2023-01-20T00:25:35;4.40;28.90
1413;DHT22;701;52.526;13.408;2023-01-20T00:28:02;4.40;28.80
1413;DHT22;701;52.526;13.408;2023-01-20T00:30:27;4.40;28.70
1413;DHT22;701;52.526;13.408;2023-01-20T00:32:53;4.40;28.70
1413;DHT22;701;52.526;13.408;2023-01-20T00:35:19;4.40;28.70
1413;DHT22;701;52.526;13.408;2023-01-20T00:37:44;4.30;28.70
1413;DHT22;701;52.526;13.408;2023-01-20T00:40:11;4.40;28.80
1413;DHT22;701;52.526;13.408;2023-01-20T00:42:36;4.30;28.70
1413;DHT22;701;52.526;13.408;2023-01-20T00:45:02;4.30;28.60
1413;DHT22;701;52.526;13.408;2023-01-20T00:47:28;4.40;28.70
1413;DHT22;701;52.526;13.408;2023-01-20T00:49:54;4.40;28.40
1413;DHT22;701;52.526;13.408;2023-01-20T00:52:20;4.30;28.30
1413;DHT22;701;52.526;13.408;2023-01-20T00:54:45;4.30;28.20
1413;DHT22;701;52.526;13.408;2023-01-20T00:57:11;4.20;28.20
1413;DHT22;701;52.526;13.408;2023-01-20T00:59:37;4.20;28.20
1413;DHT22;701;52.526;13.408;2023-01-20T01:02:03;4.20;28.40
1413;DHT22;701;52.526;13.408;2023-01-20T01:04:29;4.10;28.40
1413;DHT22;701;52.526;13.408;2023-01-20T01:06:55;4.10;28.60
1413;DHT22;701;52.526;13.408;2023-01-20T01:09:21;4.20;28.80
1413;DHT22;701;52.526;13.408;2023-01-20T01:11:47;4.20;28.80
1413;DHT22;701;52.526;13.408;2023-01-20T01:14:13;4.10;28.70
1413;DHT22;701;52.526;13.408;2023-01-20T01:16:41;4.20;28.80
1413;DHT22;701;52.526;13.408;2023-01-20T01:19:07;4.20;28.80
1413;DHT22;701;52.526;13.408;2023-01-20T01:21:32;4.20;28.90
1413;DHT22;701;52.526;13.408;2023-01-20T01:23:58;4.20;28.80
1413;DHT22;701;52.526;13.408;2023-01-20T01:26:24;4.20;28.80
1413;DHT22;701;52.526;13.408;2023-01-20T01:28:50;4.10;28.60
1413;DHT22;701;52.526;13.408;2023-01-20T01:31:17;4.10;28.60
1413;DHT22;701;52.526;13.408;2023-01-20T01:33:47;4.00;28.60
1413;DHT22;701;52.526;13.408;2023-01-20T01:36:15;4.00;28.70
1413;DHT22;701;52.526;13.408;2023-01-20T01:38:42;3.90;28.70
1413;DHT22;701;52.526;13.408;2023-01-20T01:41:12;3.90;28.80
1413;DHT22;701;52.526;13.408;2023-01-20T01:43:57;3.90;28.80
1413;DHT22;701;52.526;13.408;2023-01-20T01:46:24;3.90;29.00
1413;DHT22;701;52.526;13.408;2023-01-20T01:48:50;3.90;28.90
1413;DHT22;701;52.526;13.408;2023-01-20T01:51:22;3.80;28.80
1413;DHT22;701;52.526;13.408;2023-01-20T01:53:53;3.80;28.70
1413;DHT22;701;52.526;13.408;2023-01-20T01:56:23;3.80;28.70
1413;DHT22;701;52.526;13.408;2023-01-20T01:58:51;3.70;28.70
1413;DHT22;701;52.526;13.408;2023-01-20T02:01:19;3.70;28.70
1413;DHT22;701;52.526;13.408;2023-01-20T02:04:08;3.60;28.80
1413;DHT22;701;52.526;13.408;2023-01-20T02:06:37;3.50;29.40
1413;DHT22;701;52.526;13.408;2023-01-20T02:09:04;3.40;29.00
1413;DHT22;701;52.526;13.408;2023-01-20T02:11:34;3.30;29.10
1413;DHT22;701;52.526;13.408;2023-01-20T02:14:01;3.30;29.30
1413;DHT22;701;52.526;13.408;2023-01-20T02:21:49;3.20;30.00
1413;DHT22;701;52.526;13.408;2023-01-20T02:27:19;3.20;30.30
1413;DHT22;701;52.526;13.408;2023-01-20T02:35:12;3.20;30.50
1413;DHT22;701;52.526;13.408;2023-01-20T02:38:17;3.20;30.70
1413;DHT22;701;52.526;13.408;2023-01-20T02:40:52;3.20;30.80
1413;DHT22;701;52.526;13.408;2023-01-20T02:43:34;3.30;30.70
1413;DHT22;701;52.526;13.408;2023-01-20T02:46:07;3.30;30.70
1413;DHT22;701;52.526;13.408;2023-01-20T02:51:16;3.30;30.40
1413;DHT22;701;52.526;13.408;2023-01-20T02:54:12;3.40;30.50
1413;DHT22;701;52.526;13.408;2023-01-20T02:56:39;3.40;30.40
1413;DHT22;701;52.526;13.408;2023-01-20T02:59:12;3.40;30.30
1413;DHT22;701;52.526;13.408;2023-01-20T03:01:46;3.40;30.30
1413;DHT22;701;52.526;13.408;2023-01-20T03:04:15;3.40;30.40
1413;DHT22;701;52.526;13.408;2023-01-20T03:06:47;3.40;30.50
1413;DHT22;701;52.526;13.408;2023-01-20T03:09:19;3.40;30.60
1413;DHT22;701;52.526;13.408;2023-01-20T03:11:50;3.50;30.60
1413;DHT22;701;52.526;13.408;2023-01-20T03:14:17;3.50;30.50
1413;DHT22;701;52.526;13.408;2023-01-20T03:16:43;3.60;30.40
1413;DHT22;701;52.526;13.408;2023-01-20T03:19:13;3.60;30.20
1413;DHT22;701;52.526;13.408;2023-01-20T03:21:39;3.60;30.20
1413;DHT22;701;52.526;13.408;2023-01-20T03:24:06;3.60;30.10
1413;DHT22;701;52.526;13.408;2023-01-20T03:26:32;3.70;30.00
1413;DHT22;701;52.526;13.408;2023-01-20T03:29:00;3.60;29.90
1413;DHT22;701;52.526;13.408;2023-01-20T03:31:38;3.60;29.90
1413;DHT22;701;52.526;13.408;2023-01-20T03:34:09;3.60;29.80
1413;DHT22;701;52.526;13.408;2023-01-20T03:36:36;3.60;30.40
1413;DHT22;701;52.526;13.408;2023-01-20T03:39:02;3.60;29.90
1413;DHT22;701;52.526;13.408;2023-01-20T03:47:09;3.70;29.80
1413;DHT22;701;52.526;13.408;2023-01-20T03:55:09;3.70;29.60
1413;DHT22;701;52.526;13.408;2023-01-20T03:57:43;3.70;29.60
1413;DHT22;701;52.526;13.408;2023-01-20T04:00:10;3.70;29.60
1413;DHT22;701;52.526;13.408;2023-01-20T04:02:39;3.70;29.70
1413;DHT22;701;52.526;13.408;2023-01-20T04:05:07;3.60;29.70
1413;DHT22;701;52.526;13.408;2023-01-20T04:07:34;3.60;29.80
1413;DHT22;701;52.526;13.408;2023-01-20T04:10:06;3.60;29.80
1413;DHT22;701;52.526;13.408;2023-01-20T04:12:34;3.60;29.90
1413;DHT22;701;52.526;13.408;2023-01-20T04:15:00;3.60;29.80
1413;DHT22;701;52.526;13.408;2023-01-20T04:17:29;3.70;29.80
1413;DHT22;701;52.526;13.408;2023-01-20T04:19:56;3.70;29.80
1413;DHT22;701;52.526;13.408;2023-01-20T04:22:30;3.70;29.80
1413;DHT22;701;52.526;13.408;2023-01-20T04:25:03;3.60;29.80
1413;DHT22;701;52.526;13.408;2023-01-20T04:27:30;3.70;29.80
1413;DHT22;701;52.526;13.408;2023-01-20T04:29:55;3.60;29.80
1413;DHT22;701;52.526;13.408;2023-01-20T04:32:21;3.60;29.80
1413;DHT22;701;52.526;13.408;2023-01-20T04:34:49;3.70;30.50
1413;DHT22;701;52.526;13.408;2023-01-20T04:37:16;3.70;30.00
1413;DHT22;701;52.526;13.408;2023-01-20T04:39:41;3.70;30.00
1413;DHT22;701;52.526;13.408;2023-01-20T04:42:11;3.70;30.00
1413;DHT22;701;52.526;13.408;2023-01-20T04:44:37;3.70;30.00
1413;DHT22;701;52.526;13.408;2023-01-20T04:47:02;3.70;30.00
1413;DHT22;701;52.526;13.408;2023-01-20T04:49:28;3.70;30.00
1413;DHT22;701;52.526;13.408;2023-01-20T04:51:54;3.70;30.00
1413;DHT22;701;52.526;13.408;2023-01-20T04:54:20;3.70;30.00
1413;DHT22;701;52.526;13.408;2023-01-20T04:56:48;3.70;30.00
1413;DHT22;701;52.526;13.408;2023-01-20T04:59:15;3.70;30.00
1413;DHT22;701;52.526;13.408;2023-01-20T05:01:41;3.70;30.00
1413;DHT22;701;52.526;13.408;2023-01-20T05:04:06;3.70;30.00
1413;DHT22;701;52.526;13.408;2023-01-20T05:06:32;3.70;30.00
1413;DHT22;701;52.526;13.408;2023-01-20T05:08:59;3.70;30.10
1413;DHT22;701;52.526;13.408;2023-01-20T05:11:25;3.70;30.10
1413;DHT22;701;52.526;13.408;2023-01-20T05:13:51;3.70;30.10
1413;DHT22;701;52.526;13.408;2023-01-20T05:16:16;3.70;30.00
1413;DHT22;701;52.526;13.408;2023-01-20T05:18:48;3.80;30.70
1413;DHT22;701;52.526;13.408;2023-01-20T05:21:14;3.80;30.00
1413;DHT22;701;52.526;13.408;2023-01-20T05:23:40;3.80;30.00
1413;DHT22;701;52.526;13.408;2023-01-20T05:26:06;3.80;30.00
1413;DHT22;701;52.526;13.408;2023-01-20T05:28:31;3.70;29.90
1413;DHT22;701;52.526;13.408;2023-01-20T05:30:57;3.70;30.00
1413;DHT22;701;52.526;13.408;2023-01-20T05:33:23;3.70;30.00
1413;DHT22;701;52.526;13.408;2023-01-20T05:35:49;3.70;30.00
1413;DHT22;701;52.526;13.408;2023-01-20T05:38:14;3.70;30.00
1413;DHT22;701;52.526;13.408;2023-01-20T05:40:40;3.70;30.00
1413;DHT22;701;52.526;13.408;2023-01-20T05:43:06;3.70;30.00
1413;DHT22;701;52.526;13.408;2023-01-20T05:45:31;3.70;30.00
1413;DHT22;701;52.526;13.408;2023-01-20T05:47:58;3.60;30.00
1413;DHT22;701;52.526;13.408;2023-01-20T05:50:25;3.50;30.20
1413;DHT22;701;52.526;13.408;2023-01-20T05:52:51;3.50;30.40
1413;DHT22;701;52.526;13.408;2023-01-20T05:55:17;3.50;30.30
1413;DHT22;701;52.526;13.408;2023-01-20T05:57:43;3.50;30.30
1413;DHT22;701;52.526;13.408;2023-01-20T06:00:09;3.50;30.30
1413;DHT22;701;52.526;13.408;2023-01-20T06:02:35;3.40;30.00
1413;DHT22;701;52.526;13.408;2023-01-20T06:05:01;3.40;30.10
1413;DHT22;701;52.526;13.408;2023-01-20T06:07:27;3.40;30.10
1413;DHT22;701;52.526;13.408;2023-01-20T06:09:54;3.40;30.00
1413;DHT22;701;52.526;13.408;2023-01-20T06:12:20;3.40;30.00
1413;DHT22;701;52.526;13.408;2023-01-20T06:14:46;3.40;30.00
1413;DHT22;701;52.526;13.408;2023-01-20T06:17:11;3.40;30.00
1413;DHT22;701;52.526;13.408;2023-01-20T06:19:37;3.40;29.90
1413;DHT22;701;52.526;13.408;2023-01-20T06:22:03;3.40;29.90
1413;DHT22;701;52.526;13.408;2023-01-20T06:24:29;3.40;29.80
1413;DHT22;701;52.526;13.408;2023-01-20T06:26:55;3.40;29.90
1413;DHT22;701;52.526;13.408;2023-01-20T06:29:21;3.40;29.90
1413;DHT22;701;52.526;13.408;2023-01-20T06:31:47;3.40;29.90
1413;DHT22;701;52.526;13.408;2023-01-20T06:34:12;3.40;29.90
1413;DHT22;701;52.526;13.408;2023-01-20T06:36:38;3.40;30.00
1413;DHT22;701;52.526;13.408;2023-01-20T06:39:04;3.40;29.80
1413;DHT22;701;52.526;13.408;2023-01-20T06:41:30;3.40;29.80
1413;DHT22;701;52.526;13.408;2023-01-20T06:43:56;3.40;29.70
1413;DHT22;701;52.526;13.408;2023-01-20T06:46:22;3.40;29.70
1413;DHT22;701;52.526;13.408;2023-01-20T06:48:48;3.40;29.60
1413;DHT22;701;52.526;13.408;2023-01-20T06:51:17;3.40;30.00
1413;DHT22;701;52.526;13.408;2023-01-20T06:53:43;3.40;29.50
1413;DHT22;701;52.526;13.408;2023-01-20T06:56:10;3.40;29.50
1413;DHT22;701;52.526;13.408;2023-01-20T06:58:37;3.40;29.20
1413;DHT22;701;52.526;13.408;2023-01-20T07:03:30;3.30;29.40
1413;DHT22;701;52.526;13.408;2023-01-20T07:06:06;3.20;29.50
1413;DHT22;701;52.526;13.408;2023-01-20T07:08:37;3.20;29.70
1413;DHT22;701;52.526;13.408;2023-01-20T07:11:03;3.10;29.70
1413;DHT22;701;52.526;13.408;2023-01-20T07:13:28;3.10;29.90
1413;DHT22;701;52.526;13.408;2023-01-20T07:15:54;3.10;29.90
1413;DHT22;701;52.526;13.408;2023-01-20T07:18:20;3.20;30.00
1413;DHT22;701;52.526;13.408;2023-01-20T07:20:45;3.20;30.10
1413;DHT22;701;52.526;13.408;2023-01-20T07:23:11;3.20;30.00
1413;DHT22;701;52.526;13.408;2023-01-20T07:25:37;3.30;30.00
1413;DHT22;701;52.526;13.408;2023-01-20T07:28:04;3.30;29.90
1413;DHT22;701;52.526;13.408;2023-01-20T07:30:30;3.30;29.90
1413;DHT22;701;52.526;13.408;2023-01-20T07:32:55;3.30;29.80
1413;DHT22;701;52.526;13.408;2023-01-20T07:35:21;3.30;29.70
1413;DHT22;701;52.526;13.408;2023-01-20T07:37:47;3.40;29.60
1413;DHT22;701;52.526;13.408;2023-01-20T07:40:12;3.40;29.50
1413;DHT22;701;52.526;13.408;2023-01-20T07:42:38;3.40;29.40
1413;DHT22;701;52.526;13.408;2023-01-20T07:45:05;3.30;29.30
1413;DHT22;701;52.526;13.408;2023-01-20T07:47:31;3.30;29.30
1413;DHT22;701;52.526;13.408;2023-01-20T07:49:56;3.30;29.30
1413;DHT22;701;52.526;13.408;2023-01-20T07:52:22;3.30;29.20
1413;DHT22;701;52.526;13.408;2023-01-20T07:54:48;3.30;29.20
1413;DHT22;701;52.526;13.408;2023-01-20T07:57:14;3.40;29.20
1413;DHT22;701;52.526;13.408;2023-01-20T07:59:39;3.30;28.90
1413;DHT22;701;52.526;13.408;2023-01-20T08:02:05;3.30;29.10
1413;DHT22;701;52.526;13.408;2023-01-20T08:04:32;3.30;29.20
1413;DHT22;701;52.526;13.408;2023-01-20T08:06:58;3.30;29.20
1413;DHT22;701;52.526;13.408;2023-01-20T08:09:23;3.30;29.10
1413;DHT22;701;52.526;13.408;2023-01-20T08:11:49;3.40;28.90
1413;DHT22;701;52.526;13.408;2023-01-20T08:14:15;3.40;28.80
1413;DHT22;701;52.526;13.408;2023-01-20T08:16:40;3.50;28.80
1413;DHT22;701;52.526;13.408;2023-01-20T08:19:06;3.50;28.70
1413;DHT22;701;52.526;13.408;2023-01-20T08:21:32;3.50;28.40
1413;DHT22;701;52.526;13.408;2023-01-20T08:24:00;3.50;28.50
1413;DHT22;701;52.526;13.408;2023-01-20T08:26:27;3.60;28.50
1413;DHT22;701;52.526;13.408;2023-01-20T08:28:55;3.60;28.40
1413;DHT22;701;52.526;13.408;2023-01-20T08:31:26;3.60;28.10
1413;DHT22;701;52.526;13.408;2023-01-20T08:33:53;3.60;28.30
1413;DHT22;701;52.526;13.408;2023-01-20T08:36:26;3.60;28.40
1413;DHT22;701;52.526;13.408;2023-01-20T08:38:54;3.60;28.30
1413;DHT22;701;52.526;13.408;2023-01-20T08:41:29;3.70;28.30
1413;DHT22;701;52.526;13.408;2023-01-20T08:43:57;3.70;28.30
1413;DHT22;701;52.526;13.408;2023-01-20T08:46:23;3.70;28.30
1413;DHT22;701;52.526;13.408;2023-01-20T08:48:49;3.70;28.20
1413;DHT22;701;52.526;13.408;2023-01-20T08:51:35;3.80;28.20
1413;DHT22;701;52.526;13.408;2023-01-20T08:54:01;3.80;27.90
1413;DHT22;701;52.526;13.408;2023-01-20T08:56:28;3.80;27.90
1413;DHT22;701;52.526;13.408;2023-01-20T08:58:55;3.90;28.50
1413;DHT22;701;52.526;13.408;2023-01-20T09:01:24;3.90;28.00
1413;DHT22;701;52.526;13.408;2023-01-20T09:03:50;3.90;28.00
1413;DHT22;701;52.526;13.408;2023-01-20T09:06:17;3.90;28.00
1413;DHT22;701;52.526;13.408;2023-01-20T09:08:44;4.00;28.10
1413;DHT22;701;52.526;13.408;2023-01-20T09:11:13;4.00;28.00
1413;DHT22;701;52.526;13.408;2023-01-20T09:13:39;3.90;27.60
1413;DHT22;701;52.526;13.408;2023-01-20T09:16:05;3.90;27.80
1413;DHT22;701;52.526;13.408;2023-01-20T09:18:33;3.90;28.00
1413;DHT22;701;52.526;13.408;2023-01-20T09:21:00;3.80;27.80
1413;DHT22;701;52.526;13.408;2023-01-20T09:23:28;3.80;27.90
1413;DHT22;701;52.526;13.408;2023-01-20T09:25:54;3.90;27.70
1413;DHT22;701;52.526;13.408;2023-01-20T09:28:19;3.90;27.50
1413;DHT22;701;52.526;13.408;2023-01-20T09:30:45;3.90;27.60
1413;DHT22;701;52.526;13.408;2023-01-20T09:33:12;3.90;27.40
1413;DHT22;701;52.526;13.408;2023-01-20T09:35:38;3.90;27.50
1413;DHT22;701;52.526;13.408;2023-01-20T09:38:05;4.00;27.40
1413;DHT22;701;52.526;13.408;2023-01-20T09:41:04;4.00;27.10
1413;DHT22;701;52.526;13.408;2023-01-20T09:47:13;3.90;26.60
1413;DHT22;701;52.526;13.408;2023-01-20T09:52:32;3.80;27.00
1413;DHT22;701;52.526;13.408;2023-01-20T09:55:33;3.80;27.60
1413;DHT22;701;52.526;13.408;2023-01-20T10:00:38;3.80;27.50
1413;DHT22;701;52.526;13.408;2023-01-20T10:03:14;3.90;27.40
1413;DHT22;701;52.526;13.408;2023-01-20T10:05:43;3.90;27.20
1413;DHT22;701;52.526;13.408;2023-01-20T10:11:00;4.00;27.00
1413;DHT22;701;52.526;13.408;2023-01-20T10:13:44;4.00;27.00
1413;DHT22;701;52.526;13.408;2023-01-20T10:16:20;4.00;26.90
1413;DHT22;701;52.526;13.408;2023-01-20T10:18:59;4.00;26.90
1413;DHT22;701;52.526;13.408;2023-01-20T10:24:39;3.90;26.90
1413;DHT22;701;52.526;13.408;2023-01-20T10:27:05;4.00;27.00
1413;DHT22;701;52.526;13.408;2023-01-20T10:29:40;4.00;26.90
1413;DHT22;701;52.526;13.408;2023-01-20T10:32:14;4.00;26.90
1413;DHT22;701;52.526;13.408;2023-01-20T10:34:46;4.00;26.70
1413;DHT22;701;52.526;13.408;2023-01-20T10:37:12;3.90;26.70
1413;DHT22;701;52.526;13.408;2023-01-20T10:39:51;4.00;26.80
1413;DHT22;701;52.526;13.408;2023-01-20T10:42:18;4.10;26.80
1413;DHT22;701;52.526;13.408;2023-01-20T10:44:46;4.10;26.80
1413;DHT22;701;52.526;13.408;2023-01-20T10:47:54;4.20;26.50
1413;DHT22;701;52.526;13.408;2023-01-20T10:50:44;4.30;26.20
1413;DHT22;701;52.526;13.408;2023-01-20T10:53:23;4.50;25.90
1413;DHT22;701;52.526;13.408;2023-01-20T10:59:01;4.70;25.10
1413;DHT22;701;52.526;13.408;2023-01-20T11:01:27;4.70;25.00
1413;DHT22;701;52.526;13.408;2023-01-20T11:03:53;4.80;25.10
1413;DHT22;701;52.526;13.408;2023-01-20T11:06:21;4.90;25.00
1413;DHT22;701;52.526;13.408;2023-01-20T11:08:48;4.90;25.00
1413;DHT22;701;52.526;13.408;2023-01-20T11:11:24;5.00;24.70
1413;DHT22;701;52.526;13.408;2023-01-20T11:13:51;5.00;24.40
1413;DHT22;701;52.526;13.408;2023-01-20T11:16:22;5.10;24.30
1413;DHT22;701;52.526;13.408;2023-01-20T11:19:02;5.10;24.10
1413;DHT22;701;52.526;13.408;2023-01-20T11:21:31;5.20;23.80
1413;DHT22;701;52.526;13.408;2023-01-20T11:23:58;5.20;23.90
1413;DHT22;701;52.526;13.408;2023-01-20T11:26:33;5.20;23.90
1413;DHT22;701;52.526;13.408;2023-01-20T11:29:04;5.20;23.50
1413;DHT22;701;52.526;13.408;2023-01-20T11:31:52;5.20;23.80
1413;DHT22;701;52.526;13.408;2023-01-20T11:34:28;5.20;23.50
1413;DHT22;701;52.526;13.408;2023-01-20T11:39:32;5.10;23.30
1413;DHT22;701;52.526;13.408;2023-01-20T11:42:25;5.00;23.50
1413;DHT22;701;52.526;13.408;2023-01-20T11:52:31;4.70;24.10
1413;DHT22;701;52.526;13.408;2023-01-20T11:57:33;4.80;24.20
1413;DHT22;701;52.526;13.408;2023-01-20T12:00:02;4.80;24.30
1413;DHT22;701;52.526;13.408;2023-01-20T12:02:37;4.80;24.10
1413;DHT22;701;52.526;13.408;2023-01-20T12:05:22;4.80;24.00
1413;DHT22;701;52.526;13.408;2023-01-20T12:07:51;4.90;23.90
1413;DHT22;701;52.526;13.408;2023-01-20T12:10:35;4.90;23.70
1413;DHT22;701;52.526;13.408;2023-01-20T12:15:41;5.00;23.60
1413;DHT22;701;52.526;13.408;2023-01-20T12:18:34;5.00;23.60
1413;DHT22;701;52.526;13.408;2023-01-20T12:21:05;5.00;23.50
1413;DHT22;701;52.526;13.408;2023-01-20T12:26:14;5.10;23.50
1413;DHT22;701;52.526;13.408;2023-01-20T12:31:41;5.00;23.30
1413;DHT22;701;52.526;13.408;2023-01-20T12:34:14;5.00;23.40
1413;DHT22;701;52.526;13.408;2023-01-20T12:40:07;4.80;23.40
1413;DHT22;701;52.526;13.408;2023-01-20T12:45:21;4.70;23.90
1413;DHT22;701;52.526;13.408;2023-01-20T13:13:15;4.70;24.20
1413;DHT22;701;52.526;13.408;2023-01-20T13:18:36;4.80;24.10
1413;DHT22;701;52.526;13.408;2023-01-20T13:21:11;4.80;24.00
1413;DHT22;701;52.526;13.408;2023-01-20T13:23:40;4.80;24.50
1413;DHT22;701;52.526;13.408;2023-01-20T13:26:07;4.90;23.80
1413;DHT22;701;52.526;13.408;2023-01-20T13:28:33;5.00;23.60
1413;DHT22;701;52.526;13.408;2023-01-20T13:31:00;5.00;23.40
1413;DHT22;701;52.526;13.408;2023-01-20T13:33:38;5.10;23.20
1413;DHT22;701;52.526;13.408;2023-01-20T13:38:39;5.40;22.50
1413;DHT22;701;52.526;13.408;2023-01-20T13:41:05;5.40;22.50
1413;DHT22;701;52.526;13.408;2023-01-20T13:43:32;5.40;22.40
1413;DHT22;701;52.526;13.408;2023-01-20T13:46:35;5.40;22.30
1413;DHT22;701;52.526;13.408;2023-01-20T13:56:47;5.50;22.00
1413;DHT22;701;52.526;13.408;2023-01-20T13:59:13;5.50;22.00
1413;DHT22;701;52.526;13.408;2023-01-20T14:01:38;5.40;21.90
1413;DHT22;701;52.526;13.408;2023-01-20T14:06:30;5.30;21.80
1413;DHT22;701;52.526;13.408;2023-01-20T14:09:01;5.30;22.40
1413;DHT22;701;52.526;13.408;2023-01-20T14:11:28;5.20;22.30
1413;DHT22;701;52.526;13.408;2023-01-20T14:13:56;5.20;22.20
1413;DHT22;701;52.526;13.408;2023-01-20T14:16:29;5.10;22.40
1413;DHT22;701;52.526;13.408;2023-01-20T14:18:58;5.10;22.60
1413;DHT22;701;52.526;13.408;2023-01-20T14:21:29;5.00;22.80
1413;DHT22;701;52.526;13.408;2023-01-20T14:23:55;4.90;22.90
1413;DHT22;701;52.526;13.408;2023-01-20T14:26:30;4.90;23.10
1413;DHT22;701;52.526;13.408;2023-01-20T14:28:58;4.90;23.10
1413;DHT22;701;52.526;13.408;2023-01-20T14:31:32;4.90;23.10
1413;DHT22;701;52.526;13.408;2023-01-20T14:36:29;4.80;23.30
1413;DHT22;701;52.526;13.408;2023-01-20T14:39:01;4.70;23.40
1413;DHT22;701;52.526;13.408;2023-01-20T14:41:46;4.70;23.50
1413;DHT22;701;52.526;13.408;2023-01-20T14:44:20;4.70;23.70
1413;DHT22;701;52.526;13.408;2023-01-20T14:46:48;4.60;23.80
1413;DHT22;701;52.526;13.408;2023-01-20T14:49:17;4.70;23.90
1413;DHT22;701;52.526;13.408;2023-01-20T14:51:44;4.60;23.90
1413;DHT22;701;52.526;13.408;2023-01-20T14:54:43;4.60;23.90
1413;DHT22;701;52.526;13.408;2023-01-20T14:57:29;4.50;23.90
1413;DHT22;701;52.526;13.408;2023-01-20T15:00:25;4.50;24.20
1413;DHT22;701;52.526;13.408;2023-01-20T15:05:28;4.30;24.50
1413;DHT22;701;52.526;13.408;2023-01-20T15:10:41;4.30;24.70
1413;DHT22;701;52.526;13.408;2023-01-20T15:13:26;4.30;24.70
1413;DHT22;701;52.526;13.408;2023-01-20T15:21:48;4.10;25.00
1413;DHT22;701;52.526;13.408;2023-01-20T15:24:19;4.10;25.20
1413;DHT22;701;52.526;13.408;2023-01-20T15:26:47;4.00;25.20
1413;DHT22;701;52.526;13.408;2023-01-20T15:31:49;3.90;25.50
1413;DHT22;701;52.526;13.408;2023-01-20T15:34:16;3.80;25.70
1413;DHT22;701;52.526;13.408;2023-01-20T15:36:43;3.70;25.70
1413;DHT22;701;52.526;13.408;2023-01-20T15:39:14;3.70;26.40
1413;DHT22;701;52.526;13.408;2023-01-20T15:41:40;3.60;26.00
1413;DHT22;701;52.526;13.408;2023-01-20T15:44:05;3.70;26.20
1413;DHT22;701;52.526;13.408;2023-01-20T15:46:32;3.60;26.30
1413;DHT22;701;52.526;13.408;2023-01-20T15:48:58;3.60;26.40
1413;DHT22;701;52.526;13.408;2023-01-20T15:51:23;3.50;26.40
1413;DHT22;701;52.526;13.408;2023-01-20T15:53:49;3.50;26.50
1413;DHT22;701;52.526;13.408;2023-01-20T15:56:19;3.40;26.90
1413;DHT22;701;52.526;13.408;2023-01-20T15:58:46;3.30;27.40
1413;DHT22;701;52.526;13.408;2023-01-20T16:01:14;3.20;27.60
1413;DHT22;701;52.526;13.408;2023-01-20T16:03:40;3.10;27.50
1413;DHT22;701;52.526;13.408;2023-01-20T16:06:14;3.10;27.80
1413;DHT22;701;52.526;13.408;2023-01-20T16:08:42;3.00;28.30
1413;DHT22;701;52.526;13.408;2023-01-20T16:11:10;2.90;28.70
1413;DHT22;701;52.526;13.408;2023-01-20T16:13:36;2.80;29.20
1413;DHT22;701;52.526;13.408;2023-01-20T16:16:02;2.80;29.30
1413;DHT22;701;52.526;13.408;2023-01-20T16:18:28;2.80;29.40
1413;DHT22;701;52.526;13.408;2023-01-20T16:20:55;2.80;29.70
1413;DHT22;701;52.526;13.408;2023-01-20T16:23:21;2.70;30.00
1413;DHT22;701;52.526;13.408;2023-01-20T16:25:47;2.70;30.20
1413;DHT22;701;52.526;13.408;2023-01-20T16:28:18;2.70;30.10
1413;DHT22;701;52.526;13.408;2023-01-20T16:30:46;2.80;30.00
1413;DHT22;701;52.526;13.408;2023-01-20T16:33:21;2.80;30.10
1413;DHT22;701;52.526;13.408;2023-01-20T16:35:51;2.80;30.10
1413;DHT22;701;52.526;13.408;2023-01-20T16:38:20;2.80;30.30
1413;DHT22;701;52.526;13.408;2023-01-20T16:40:49;2.80;30.20
1413;DHT22;701;52.526;13.408;2023-01-20T16:43:16;2.80;30.30
1413;DHT22;701;52.526;13.408;2023-01-20T16:45:42;2.80;30.30
1413;DHT22;701;52.526;13.408;2023-01-20T16:48:08;2.80;30.20
1413;DHT22;701;52.526;13.408;2023-01-20T16:50:35;2.80;30.20
1413;DHT22;701;52.526;13.408;2023-01-20T16:53:01;2.90;30.20
1413;DHT22;701;52.526;13.408;2023-01-20T16:55:27;2.80;30.30
1413;DHT22;701;52.526;13.408;2023-01-20T16:57:52;2.80;30.20
1413;DHT22;701;52.526;13.408;2023-01-20T17:00:19;2.80;30.30
1413;DHT22;701;52.526;13.408;2023-01-20T17:02:51;2.80;30.30
1413;DHT22;701;52.526;13.408;2023-01-20T17:05:17;2.80;30.20
1413;DHT22;701;52.526;13.408;2023-01-20T17:07:48;2.80;30.30
1413;DHT22;701;52.526;13.408;2023-01-20T17:10:15;2.80;30.70
1413;DHT22;701;52.526;13.408;2023-01-20T17:12:41;2.80;30.60
1413;DHT22;701;52.526;13.408;2023-01-20T17:15:07;2.80;30.60
1413;DHT22;701;52.526;13.408;2023-01-20T17:17:33;2.80;30.50
1413;DHT22;701;52.526;13.408;2023-01-20T17:20:04;2.80;30.50
1413;DHT22;701;52.526;13.408;2023-01-20T17:22:30;2.90;30.70
1413;DHT22;701;52.526;13.408;2023-01-20T17:24:56;2.90;30.60
1413;DHT22;701;52.526;13.408;2023-01-20T17:27:22;2.90;30.30
1413;DHT22;701;52.526;13.408;2023-01-20T17:29:47;2.90;30.10
1413;DHT22;701;52.526;13.408;2023-01-20T17:32:13;3.00;30.60
1413;DHT22;701;52.526;13.408;2023-01-20T17:34:40;2.90;30.00
1413;DHT22;701;52.526;13.408;2023-01-20T17:37:06;3.00;29.90
1413;DHT22;701;52.526;13.408;2023-01-20T17:39:31;3.00;29.80
1413;DHT22;701;52.526;13.408;2023-01-20T17:41:57;3.00;29.70
1413;DHT22;701;52.526;13.408;2023-01-20T17:44:23;2.90;29.60
1413;DHT22;701;52.526;13.408;2023-01-20T17:46:48;2.90;29.60
1413;DHT22;701;52.526;13.408;2023-01-20T17:49:15;2.90;29.60
1413;DHT22;701;52.526;13.408;2023-01-20T17:51:41;2.90;29.90
1413;DHT22;701;52.526;13.408;2023-01-20T17:54:08;2.90;29.60
1413;DHT22;701;52.526;13.408;2023-01-20T17:56:34;2.90;29.50
1413;DHT22;701;52.526;13.408;2023-01-20T17:59:00;2.90;29.50
1413;DHT22;701;52.526;13.408;2023-01-20T18:01:28;2.90;29.50
1413;DHT22;701;52.526;13.408;2023-01-20T18:03:55;2.90;29.60
1413;DHT22;701;52.526;13.408;2023-01-20T18:06:24;2.90;29.70
1413;DHT22;701;52.526;13.408;2023-01-20T18:08:56;2.90;29.60
1413;DHT22;701;52.526;13.408;2023-01-20T18:11:23;2.90;29.50
1413;DHT22;701;52.526;13.408;2023-01-20T18:13:51;2.90;29.50
1413;DHT22;701;52.526;13.408;2023-01-20T18:16:19;2.90;29.50
1413;DHT22;701;52.526;13.408;2023-01-20T18:18:45;2.90;29.50
1413;DHT22;701;52.526;13.408;2023-01-20T18:21:17;2.80;29.40
1413;DHT22;701;52.526;13.408;2023-01-20T18:23:44;2.80;29.50
1413;DHT22;701;52.526;13.408;2023-01-20T18:26:11;2.80;29.70
1413;DHT22;701;52.526;13.408;2023-01-20T18:28:39;2.80;29.70
1413;DHT22;701;52.526;13.408;2023-01-20T18:31:08;2.80;29.70
1413;DHT22;701;52.526;13.408;2023-01-20T18:33:42;2.80;29.70
1413;DHT22;701;52.526;13.408;2023-01-20T18:36:11;2.80;29.60
1413;DHT22;701;52.526;13.408;2023-01-20T18:38:37;2.80;30.00
1413;DHT22;701;52.526;13.408;2023-01-20T18:41:12;2.80;29.40